createdAt,value
2017-12-24T00:02:18.374Z,3.98
2017-12-24T00:04:44.465Z,3.98
2017-12-24T00:07:10.603Z,3.96
2017-12-24T00:09:36.776Z,3.93
2017-12-24T00:12:03.012Z,3.90
2017-12-24T00:14:29.183Z,3.89
2017-12-24T00:16:55.267Z,3.87
2017-12-24T00:19:21.352Z,3.83
2017-12-24T00:21:47.586Z,3.81
2017-12-24T00:24:13.765Z,3.79
2017-12-24T00:26:39.883Z,3.75
2017-12-24T00:29:06.209Z,3.72
2017-12-24T00:31:32.451Z,3.69
2017-12-24T00:33:58.575Z,3.68
2017-12-24T00:36:24.672Z,3.66
2017-12-24T00:38:50.761Z,3.65
2017-12-24T00:41:16.765Z,3.64
2017-12-24T00:43:42.875Z,3.63
2017-12-24T00:46:09.018Z,3.61
2017-12-24T00:48:35.453Z,3.60
2017-12-24T00:51:01.884Z,3.59
2017-12-24T00:53:28.100Z,3.59
2017-12-24T00:55:54.296Z,3.60
2017-12-24T00:58:20.348Z,3.61
2017-12-24T01:00:46.890Z,3.60
2017-12-24T01:03:13.141Z,3.61
2017-12-24T01:05:39.307Z,3.61
2017-12-24T01:08:05.883Z,3.61
2017-12-24T01:10:32.163Z,3.59
2017-12-24T01:12:58.469Z,3.58
2017-12-24T01:15:25.733Z,3.58
2017-12-24T01:17:52.181Z,3.58
2017-12-24T01:20:18.352Z,3.59
2017-12-24T01:22:44.573Z,3.59
2017-12-24T01:25:11.020Z,3.58
2017-12-24T01:27:37.325Z,3.58
2017-12-24T01:30:03.526Z,3.58
2017-12-24T01:32:29.951Z,3.59
2017-12-24T01:34:56.270Z,3.59
2017-12-24T01:37:22.827Z,3.58
2017-12-24T01:39:49.220Z,3.59
2017-12-24T01:42:15.402Z,3.58
2017-12-24T01:44:41.668Z,3.58
2017-12-24T01:47:07.891Z,3.59
2017-12-24T01:49:34.065Z,3.60
2017-12-24T01:52:00.645Z,3.59
2017-12-24T01:54:26.935Z,3.58
2017-12-24T01:56:53.385Z,3.58
2017-12-24T01:59:19.789Z,3.59
2017-12-24T02:01:46.082Z,3.59
2017-12-24T02:04:12.340Z,3.60
2017-12-24T02:06:38.927Z,3.59
2017-12-24T02:09:05.292Z,3.61
2017-12-24T02:11:31.777Z,3.61
2017-12-24T02:13:58.038Z,3.63
2017-12-24T02:16:24.409Z,3.63
2017-12-24T02:18:50.684Z,3.63
2017-12-24T02:21:16.917Z,3.63
2017-12-24T02:23:43.210Z,3.62
2017-12-24T02:26:09.857Z,3.63
2017-12-24T02:28:35.973Z,3.62
2017-12-24T02:31:02.185Z,3.61
2017-12-24T02:33:28.220Z,3.61
2017-12-24T02:35:54.295Z,3.61
2017-12-24T02:38:20.398Z,3.61
2017-12-24T02:40:46.462Z,3.60
2017-12-24T02:43:12.560Z,3.60
2017-12-24T02:45:38.731Z,3.59
2017-12-24T02:48:04.885Z,3.60
2017-12-24T02:50:31.259Z,3.59
2017-12-24T02:52:57.446Z,3.59
2017-12-24T02:55:23.542Z,3.59
2017-12-24T02:57:49.696Z,3.57
2017-12-24T03:00:16.022Z,3.58
2017-12-24T03:02:42.230Z,3.57
2017-12-24T03:05:08.418Z,3.57
2017-12-24T03:07:34.651Z,3.58
2017-12-24T03:10:00.946Z,3.58
2017-12-24T03:12:27.154Z,3.57
2017-12-24T03:14:53.296Z,3.57
2017-12-24T03:17:19.441Z,3.57
2017-12-24T03:19:45.465Z,3.57
2017-12-24T03:22:11.555Z,3.57
2017-12-24T03:24:37.643Z,3.57
2017-12-24T03:27:03.733Z,3.57
2017-12-24T03:29:29.757Z,3.58
2017-12-24T03:31:55.732Z,3.58
2017-12-24T03:34:21.855Z,3.58
2017-12-24T03:36:47.902Z,3.57
2017-12-24T03:39:13.921Z,3.56
2017-12-24T03:41:40.467Z,3.53
2017-12-24T03:44:06.614Z,3.53
2017-12-24T03:46:32.677Z,3.52
2017-12-24T03:48:58.775Z,3.52
2017-12-24T03:51:24.974Z,3.52
2017-12-24T03:53:51.110Z,3.51
2017-12-24T03:56:17.129Z,3.51
2017-12-24T03:58:43.213Z,3.51
2017-12-24T04:01:09.251Z,3.50
2017-12-24T04:03:35.345Z,3.49
2017-12-24T04:06:01.452Z,3.49
2017-12-24T04:08:27.512Z,3.49
2017-12-24T04:10:53.587Z,3.48
2017-12-24T04:13:19.687Z,3.48
2017-12-24T04:15:52.792Z,3.49
2017-12-24T04:18:18.941Z,3.48
2017-12-24T04:20:45.009Z,3.47
2017-12-24T04:23:11.030Z,3.46
2017-12-24T04:25:37.211Z,3.46
2017-12-24T04:28:03.416Z,3.45
2017-12-24T04:30:29.488Z,3.45
2017-12-24T04:32:55.688Z,3.42
2017-12-24T04:35:21.668Z,3.41
2017-12-24T04:37:47.727Z,3.40
2017-12-24T04:40:13.854Z,3.40
2017-12-24T04:42:39.858Z,3.40
2017-12-24T04:45:05.916Z,3.40
2017-12-24T04:47:31.920Z,3.38
2017-12-24T04:49:58.096Z,3.38
2017-12-24T04:52:24.164Z,3.37
2017-12-24T04:54:50.180Z,3.37
2017-12-24T04:57:16.296Z,3.37
2017-12-24T04:59:42.453Z,3.37
2017-12-24T05:02:08.567Z,3.37
2017-12-24T05:04:34.565Z,3.35
2017-12-24T05:07:00.583Z,3.34
2017-12-24T05:09:26.708Z,3.35
2017-12-24T05:11:52.750Z,3.36
2017-12-24T05:14:18.891Z,3.35
2017-12-24T05:16:44.969Z,3.35
2017-12-24T05:19:11.022Z,3.33
2017-12-24T05:21:37.109Z,3.31
2017-12-24T05:24:03.275Z,3.29
2017-12-24T05:26:29.305Z,3.28
2017-12-24T05:28:55.336Z,3.28
2017-12-24T05:31:22.369Z,3.28
2017-12-24T05:33:48.508Z,3.28
2017-12-24T05:36:14.614Z,3.27
2017-12-24T05:38:40.706Z,3.26
2017-12-24T05:41:06.828Z,3.26
2017-12-24T05:43:32.872Z,3.25
2017-12-24T05:45:59.002Z,3.24
2017-12-24T05:48:25.068Z,3.24
2017-12-24T05:50:51.255Z,3.23
2017-12-24T05:53:17.293Z,3.23
2017-12-24T05:55:43.297Z,3.24
2017-12-24T05:58:09.382Z,3.22
2017-12-24T06:00:35.561Z,3.20
2017-12-24T06:03:01.566Z,3.19
2017-12-24T06:05:27.588Z,3.18
2017-12-24T06:07:53.699Z,3.17
2017-12-24T06:10:19.757Z,3.16
2017-12-24T06:12:45.948Z,3.15
2017-12-24T06:15:12.012Z,3.13
2017-12-24T06:17:38.039Z,3.13
2017-12-24T06:20:05.107Z,3.12
2017-12-24T06:22:31.356Z,3.12
2017-12-24T06:24:57.545Z,3.11
2017-12-24T06:27:23.545Z,3.11
2017-12-24T06:29:49.634Z,3.11
2017-12-24T06:32:15.784Z,3.11
2017-12-24T06:34:41.950Z,3.11
2017-12-24T06:37:08.096Z,3.11
2017-12-24T06:39:34.206Z,3.10
2017-12-24T06:42:00.227Z,3.09
2017-12-24T06:44:26.384Z,3.09
2017-12-24T06:46:52.506Z,3.08
2017-12-24T06:49:18.597Z,3.06
2017-12-24T06:51:44.727Z,3.06
2017-12-24T06:54:11.420Z,3.06
2017-12-24T06:56:37.506Z,3.06
2017-12-24T06:59:03.540Z,3.05
2017-12-24T07:01:29.631Z,3.04
2017-12-24T07:03:55.661Z,3.03
2017-12-24T07:06:21.881Z,3.02
2017-12-24T07:08:47.967Z,3.01
2017-12-24T07:11:14.252Z,3.00
2017-12-24T07:13:40.280Z,3.00
2017-12-24T07:16:06.427Z,2.98
2017-12-24T07:18:32.570Z,2.97
2017-12-24T07:20:58.613Z,2.97
2017-12-24T07:23:24.685Z,2.97
2017-12-24T07:25:50.842Z,2.98
2017-12-24T07:28:16.883Z,2.98
2017-12-24T07:30:43.183Z,2.98
2017-12-24T07:33:09.216Z,3.00
2017-12-24T07:35:35.347Z,3.01
2017-12-24T07:38:01.404Z,3.00
2017-12-24T07:40:27.430Z,3.00
2017-12-24T07:42:53.537Z,3.01
2017-12-24T07:45:19.550Z,3.03
2017-12-24T07:47:45.727Z,3.01
2017-12-24T07:50:11.874Z,3.02
2017-12-24T07:52:38.896Z,3.01
2017-12-24T07:55:04.954Z,3.00
2017-12-24T07:57:31.130Z,3.00
2017-12-24T07:59:57.545Z,2.99
2017-12-24T08:02:23.610Z,2.99
2017-12-24T08:04:49.772Z,3.00
2017-12-24T08:07:15.801Z,3.02
2017-12-24T08:09:41.990Z,3.03
2017-12-24T08:12:08.044Z,3.06
2017-12-24T08:14:35.015Z,3.07
2017-12-24T08:17:01.204Z,3.07
2017-12-24T08:19:27.273Z,3.09
2017-12-24T08:21:53.418Z,3.11
2017-12-24T08:24:19.628Z,3.14
2017-12-24T08:26:45.824Z,3.15
2017-12-24T08:29:12.091Z,3.18
2017-12-24T08:31:38.207Z,3.22
2017-12-24T08:34:04.339Z,3.26
2017-12-24T08:36:30.377Z,3.29
2017-12-24T08:38:56.463Z,3.29
2017-12-24T08:41:23.091Z,3.30
2017-12-24T08:43:49.503Z,3.31
2017-12-24T08:46:16.026Z,3.34
2017-12-24T08:48:44.891Z,3.38
2017-12-24T08:51:15.843Z,3.41
2017-12-24T08:53:44.169Z,3.41
2017-12-24T08:56:11.956Z,3.42
2017-12-24T08:58:38.297Z,3.40
2017-12-24T09:01:04.775Z,3.43
2017-12-24T09:03:31.277Z,3.45
2017-12-24T09:05:57.873Z,3.46
2017-12-24T09:08:24.547Z,3.48
2017-12-24T09:10:51.196Z,3.50
2017-12-24T09:13:21.761Z,3.56
2017-12-24T09:15:48.143Z,3.62
2017-12-24T09:18:14.786Z,3.64
2017-12-24T09:20:41.150Z,3.67
2017-12-24T09:23:07.714Z,3.67
2017-12-24T09:25:34.284Z,3.68
2017-12-24T09:28:00.942Z,3.69
2017-12-24T09:30:27.551Z,3.69
2017-12-24T09:32:57.918Z,3.72
2017-12-24T09:35:24.493Z,3.72
2017-12-24T09:37:51.105Z,3.70
2017-12-24T09:40:17.552Z,3.68
2017-12-24T09:42:44.387Z,3.69
2017-12-24T09:45:12.873Z,3.71
2017-12-24T09:47:42.549Z,3.70
2017-12-24T09:50:10.118Z,3.72
2017-12-24T09:52:36.965Z,3.72
2017-12-24T09:55:03.580Z,3.75
2017-12-24T09:57:30.052Z,3.80
2017-12-24T09:59:56.676Z,3.85
2017-12-24T10:02:23.995Z,3.86
2017-12-24T10:04:51.395Z,3.89
2017-12-24T10:07:18.812Z,3.85
2017-12-24T10:09:46.520Z,3.86
2017-12-24T10:12:13.189Z,3.84
2017-12-24T10:14:39.749Z,3.80
2017-12-24T10:17:06.113Z,3.82
2017-12-24T10:19:32.494Z,3.81
2017-12-24T10:21:59.252Z,3.85
2017-12-24T10:24:25.718Z,3.86
2017-12-24T10:26:52.374Z,3.88
2017-12-24T10:29:19.235Z,3.92
2017-12-24T10:31:46.120Z,3.95
2017-12-24T10:34:12.742Z,3.96
2017-12-24T10:36:39.283Z,3.99
2017-12-24T10:39:08.075Z,4.02
2017-12-24T10:41:34.787Z,4.01
2017-12-24T10:44:05.674Z,3.96
2017-12-24T10:46:36.028Z,3.91
2017-12-24T10:49:02.626Z,3.93
2017-12-24T10:51:29.197Z,3.97
2017-12-24T10:53:55.892Z,4.03
2017-12-24T10:56:22.416Z,4.14
2017-12-24T10:58:50.395Z,4.12
2017-12-24T11:01:17.032Z,4.14
2017-12-24T11:03:43.653Z,4.20
2017-12-24T11:06:10.381Z,4.21
2017-12-24T11:08:37.970Z,4.23
2017-12-24T11:11:04.602Z,4.18
2017-12-24T11:13:31.107Z,4.16
2017-12-24T11:15:57.876Z,4.18
2017-12-24T11:18:35.270Z,4.22
2017-12-24T11:21:02.063Z,4.23
2017-12-24T11:23:28.755Z,4.21
2017-12-24T11:25:55.504Z,4.25
2017-12-24T11:28:24.173Z,4.25
2017-12-24T11:30:51.097Z,4.29
2017-12-24T11:33:18.838Z,4.32
2017-12-24T11:35:45.604Z,4.33
2017-12-24T11:38:15.059Z,4.34
2017-12-24T11:40:41.808Z,4.34
2017-12-24T11:43:08.446Z,4.31
2017-12-24T11:45:35.204Z,4.31
2017-12-24T11:48:04.563Z,4.34
2017-12-24T11:50:31.479Z,4.38
2017-12-24T11:52:57.995Z,4.38
2017-12-24T11:55:27.207Z,4.39
2017-12-24T11:57:54.556Z,4.42
2017-12-24T12:00:23.675Z,4.41
2017-12-24T12:02:49.951Z,4.44
2017-12-24T12:05:16.397Z,4.47
2017-12-24T12:07:43.000Z,4.49
2017-12-24T12:10:10.445Z,4.50
2017-12-24T12:12:37.732Z,4.51
2017-12-24T12:15:04.480Z,4.52
2017-12-24T12:17:33.054Z,4.53
2017-12-24T12:20:00.242Z,4.52
2017-12-24T12:22:27.021Z,4.52
2017-12-24T12:24:54.531Z,4.49
2017-12-24T12:27:22.261Z,4.50
2017-12-24T12:29:50.536Z,4.49
2017-12-24T12:32:17.411Z,4.52
2017-12-24T12:34:44.582Z,4.52
2017-12-24T12:37:11.346Z,4.52
2017-12-24T12:39:39.078Z,4.42
2017-12-24T12:42:05.352Z,4.38
2017-12-24T12:44:32.144Z,4.40
2017-12-24T12:46:58.661Z,4.40
2017-12-24T12:49:25.100Z,4.35
2017-12-24T12:51:51.797Z,4.33
2017-12-24T12:54:18.468Z,4.31
2017-12-24T12:56:44.902Z,4.34
2017-12-24T12:59:11.371Z,4.24
2017-12-24T13:01:38.097Z,4.23
2017-12-24T13:04:04.589Z,4.20
2017-12-24T13:06:30.895Z,4.25
2017-12-24T13:08:57.418Z,4.29
2017-12-24T13:11:23.893Z,4.32
2017-12-24T13:13:50.392Z,4.37
2017-12-24T13:16:16.848Z,4.40
2017-12-24T13:18:43.620Z,4.43
2017-12-24T13:21:10.059Z,4.41
2017-12-24T13:23:36.676Z,4.37
2017-12-24T13:26:04.333Z,4.34
2017-12-24T13:28:30.990Z,4.35
2017-12-24T13:30:58.096Z,4.36
2017-12-24T13:33:24.860Z,4.40
2017-12-24T13:35:51.613Z,4.37
2017-12-24T13:38:18.654Z,4.29
2017-12-24T13:40:45.184Z,4.26
2017-12-24T13:43:11.744Z,4.25
2017-12-24T13:45:39.154Z,4.22
2017-12-24T13:48:07.633Z,4.19
2017-12-24T13:50:34.111Z,4.14
2017-12-24T13:53:00.743Z,4.12
2017-12-24T13:55:27.279Z,4.11
2017-12-24T13:57:53.742Z,4.12
2017-12-24T14:00:20.045Z,4.14
2017-12-24T14:02:46.980Z,4.14
2017-12-24T14:05:13.522Z,4.12
2017-12-24T14:07:40.656Z,4.11
2017-12-24T14:10:07.272Z,4.07
2017-12-24T14:12:33.757Z,4.00
2017-12-24T14:15:00.664Z,3.96
2017-12-24T14:17:27.382Z,3.95
2017-12-24T14:19:54.050Z,3.91
2017-12-24T14:22:20.556Z,3.84
2017-12-24T14:24:47.169Z,3.80
2017-12-24T14:27:14.202Z,3.75
2017-12-24T14:29:40.820Z,3.70
2017-12-24T14:32:07.599Z,3.70
2017-12-24T14:34:34.396Z,3.62
2017-12-24T14:37:01.037Z,3.59
2017-12-24T14:39:27.653Z,3.57
2017-12-24T14:41:55.049Z,3.56
2017-12-24T14:44:22.294Z,3.52
2017-12-24T14:46:48.568Z,3.55
2017-12-24T14:49:14.918Z,3.49
2017-12-24T14:51:41.629Z,3.46
2017-12-24T14:54:08.245Z,3.46
2017-12-24T14:56:34.930Z,3.43
2017-12-24T14:59:01.474Z,3.39
2017-12-24T15:01:27.985Z,3.38
2017-12-24T15:03:54.628Z,3.39
2017-12-24T15:06:27.401Z,3.39
2017-12-24T15:08:54.101Z,3.36
2017-12-24T15:11:20.504Z,3.33
2017-12-24T15:13:46.995Z,3.30
2017-12-24T15:16:13.588Z,3.29
2017-12-24T15:18:40.721Z,3.28
2017-12-24T15:21:07.263Z,3.27
2017-12-24T15:23:34.320Z,3.25
2017-12-24T15:26:00.948Z,3.23
2017-12-24T15:28:27.569Z,3.21
2017-12-24T15:30:54.221Z,3.19
2017-12-24T15:33:20.968Z,3.19
2017-12-24T15:35:47.370Z,3.17
2017-12-24T15:38:13.888Z,3.15
2017-12-24T15:40:42.989Z,3.15
2017-12-24T15:43:10.452Z,3.13
2017-12-24T15:45:38.955Z,3.13
2017-12-24T15:48:05.740Z,3.14
2017-12-24T15:50:32.072Z,3.13
2017-12-24T15:52:58.766Z,3.12
2017-12-24T15:55:27.438Z,3.11
2017-12-24T15:57:55.288Z,3.09
2017-12-24T16:00:39.288Z,3.07
2017-12-24T16:03:06.953Z,3.04
2017-12-24T16:05:36.374Z,3.03
2017-12-24T16:08:04.627Z,3.02
2017-12-24T16:10:31.976Z,2.99
2017-12-24T16:13:00.843Z,2.99
2017-12-24T16:15:29.065Z,2.96
2017-12-24T16:17:58.692Z,2.96
2017-12-24T16:20:26.167Z,2.96
2017-12-24T16:22:54.127Z,2.95
2017-12-24T16:25:22.046Z,2.93
2017-12-24T16:27:55.985Z,2.92
2017-12-24T16:30:24.619Z,2.90
2017-12-24T16:32:52.548Z,2.88
2017-12-24T16:35:19.516Z,2.86
2017-12-24T16:37:48.285Z,2.86
2017-12-24T16:40:16.145Z,2.85
2017-12-24T16:42:45.286Z,2.84
2017-12-24T16:45:12.092Z,2.84
2017-12-24T16:47:40.155Z,2.84
2017-12-24T16:50:07.566Z,2.83
2017-12-24T16:52:36.375Z,2.84
2017-12-24T16:55:05.573Z,2.82
2017-12-24T16:57:33.206Z,2.82
2017-12-24T17:00:00.200Z,2.81
2017-12-24T17:02:27.776Z,2.80
2017-12-24T17:04:54.791Z,2.78
2017-12-24T17:07:24.660Z,2.78
2017-12-24T17:09:54.068Z,2.77
2017-12-24T17:12:21.747Z,2.76
2017-12-24T17:14:49.801Z,2.75
2017-12-24T17:17:17.260Z,2.73
2017-12-24T17:19:45.237Z,2.72
2017-12-24T17:22:12.985Z,2.70
2017-12-24T17:24:39.633Z,2.67
2017-12-24T17:27:15.345Z,2.65
2017-12-24T17:29:43.795Z,2.65
2017-12-24T17:32:12.913Z,2.63
2017-12-24T17:34:45.675Z,2.63
2017-12-24T17:37:16.116Z,2.63
2017-12-24T17:39:42.925Z,2.63
2017-12-24T17:42:11.253Z,2.64
2017-12-24T17:44:38.773Z,2.64
2017-12-24T17:47:06.319Z,2.64
2017-12-24T17:49:37.410Z,2.66
2017-12-24T17:52:04.833Z,2.68
2017-12-24T17:54:37.144Z,2.66
2017-12-24T17:57:19.023Z,2.67
2017-12-24T17:59:47.307Z,2.68
2017-12-24T18:02:18.275Z,2.68
2017-12-24T18:04:49.867Z,2.69
2017-12-24T18:07:18.202Z,2.71
2017-12-24T18:09:45.733Z,2.72
2017-12-24T18:12:12.885Z,2.71
2017-12-24T18:14:39.955Z,2.72
2017-12-24T18:17:08.173Z,2.70
2017-12-24T18:19:36.576Z,2.68
2017-12-24T18:22:04.563Z,2.67
2017-12-24T18:24:35.080Z,2.67
2017-12-24T18:27:03.791Z,2.67
2017-12-24T18:29:31.198Z,2.67
2017-12-24T18:32:01.397Z,2.69
2017-12-24T18:34:31.239Z,2.69
2017-12-24T18:37:02.100Z,2.69
2017-12-24T18:39:32.567Z,2.68
2017-12-24T18:41:59.090Z,2.68
2017-12-24T18:44:29.034Z,2.67
2017-12-24T18:47:01.752Z,2.68
2017-12-24T18:49:36.062Z,2.67
2017-12-24T18:52:05.369Z,2.66
2017-12-24T18:54:37.385Z,2.63
2017-12-24T18:57:03.994Z,2.62
2017-12-24T18:59:32.304Z,2.62
2017-12-24T19:02:02.048Z,2.61
2017-12-24T19:04:29.536Z,2.59
2017-12-24T19:07:12.166Z,2.58
2017-12-24T19:12:29.146Z,2.56
2017-12-24T19:15:06.427Z,2.56
2017-12-24T19:17:34.543Z,2.56
2017-12-24T19:20:05.696Z,2.57
2017-12-24T19:22:32.438Z,2.57
2017-12-24T19:25:04.326Z,2.58
2017-12-24T19:27:31.452Z,2.58
2017-12-24T19:30:02.087Z,2.56
2017-12-24T19:32:37.366Z,2.55
2017-12-24T19:35:09.384Z,2.57
2017-12-24T19:37:39.096Z,2.55
2017-12-24T19:40:11.235Z,2.52
2017-12-24T19:42:42.924Z,2.50
2017-12-24T19:45:11.184Z,2.49
2017-12-24T19:47:37.991Z,2.48
2017-12-24T19:50:08.248Z,2.50
2017-12-24T19:52:36.215Z,2.52
2017-12-24T19:55:07.674Z,2.53
2017-12-24T19:57:45.879Z,2.53
2017-12-24T20:00:17.954Z,2.51
2017-12-24T20:02:49.884Z,2.50
2017-12-24T20:08:03.501Z,2.48
2017-12-24T20:10:55.781Z,2.46
2017-12-24T20:13:25.838Z,2.43
2017-12-24T20:16:01.162Z,2.40
2017-12-24T20:18:36.722Z,2.37
2017-12-24T20:21:15.603Z,2.36
2017-12-24T20:23:52.540Z,2.34
2017-12-24T20:26:22.997Z,2.33
2017-12-24T20:28:53.208Z,2.33
2017-12-24T20:31:24.097Z,2.31
2017-12-24T20:33:53.176Z,2.30
2017-12-24T20:36:24.726Z,2.28
2017-12-24T20:38:59.054Z,2.28
2017-12-24T20:44:05.776Z,2.26
2017-12-24T20:46:36.381Z,2.26
2017-12-24T20:49:11.043Z,2.25
2017-12-24T20:51:44.752Z,2.26
2017-12-24T20:54:26.185Z,2.25
2017-12-24T20:56:56.347Z,2.23
2017-12-24T21:07:25.641Z,2.20
2017-12-24T21:09:59.585Z,2.21
2017-12-24T21:18:01.473Z,2.19
2017-12-24T21:20:40.481Z,2.18
2017-12-24T21:25:48.067Z,2.13
2017-12-24T21:28:15.312Z,2.12
2017-12-24T21:30:43.502Z,2.12
2017-12-24T21:38:43.264Z,2.11
2017-12-24T21:43:57.701Z,2.06
2017-12-24T21:46:30.231Z,2.05
2017-12-24T21:51:41.867Z,2.01
2017-12-24T21:54:27.652Z,2.00
2017-12-24T21:57:05.074Z,1.98
2017-12-24T21:59:41.741Z,1.96
2017-12-24T22:02:13.401Z,1.96
2017-12-24T22:13:18.434Z,1.93
2017-12-24T22:15:52.888Z,1.91
2017-12-24T22:21:39.473Z,1.88
2017-12-24T22:24:18.590Z,1.90
2017-12-24T22:26:56.465Z,1.90
2017-12-24T22:29:29.161Z,1.90
2017-12-24T22:32:10.210Z,1.89
2017-12-24T22:34:41.233Z,1.91
2017-12-24T22:37:16.761Z,1.91
2017-12-24T22:39:51.067Z,1.91
2017-12-24T22:42:25.935Z,1.91
2017-12-24T22:44:59.228Z,1.90
2017-12-24T22:47:36.112Z,1.90
2017-12-24T22:50:03.255Z,1.88
2017-12-24T22:52:43.466Z,1.85
2017-12-24T22:55:15.134Z,1.84
2017-12-24T22:57:50.197Z,1.84
2017-12-24T23:00:26.444Z,1.83
2017-12-24T23:05:44.131Z,1.82
2017-12-24T23:08:17.626Z,1.82
2017-12-24T23:13:46.988Z,1.79
2017-12-24T23:16:21.641Z,1.78
2017-12-24T23:18:53.605Z,1.78
2017-12-24T23:24:22.441Z,1.81
2017-12-24T23:29:32.783Z,1.81
2017-12-24T23:34:42.715Z,1.82
2017-12-24T23:39:50.791Z,1.81
2017-12-24T23:42:26.377Z,1.82
2017-12-24T23:50:15.490Z,1.79
2017-12-24T23:55:55.956Z,1.74
